sensor_id;sensor_type;location;lat;lon;timestamp;pressure;altitude;pressure_sealevel;temperature;humidity
42859;BME280;28505;56.970;40.998;2023-03-25T00:01:27;98776.78;;;3.13;100.00
42859;BME280;28505;56.970;40.998;2023-03-25T00:06:50;98772.31;;;2.98;100.00
42859;BME280;28505;56.970;40.998;2023-03-25T00:12:14;98734.56;;;2.80;100.00
42859;BME280;28505;56.970;40.998;2023-03-25T00:17:39;98763.56;;;2.87;100.00
42859;BME280;28505;56.970;40.998;2023-03-25T00:23:01;98790.41;;;2.91;100.00
42859;BME280;28505;56.970;40.998;2023-03-25T00:28:23;98779.84;;;2.75;100.00
42859;BME280;28505;56.970;40.998;2023-03-25T00:33:46;98799.53;;;2.85;100.00
42859;BME280;28505;56.970;40.998;2023-03-25T00:39:08;98771.84;;;2.70;100.00
42859;BME280;28505;56.970;40.998;2023-03-25T00:44:30;98794.72;;;2.71;100.00
42859;BME280;28505;56.970;40.998;2023-03-25T00:49:52;98773.22;;;2.57;100.00
42859;BME280;28505;56.970;40.998;2023-03-25T00:55:15;98777.22;;;2.60;100.00
42859;BME280;28505;56.970;40.998;2023-03-25T01:00:37;98787.31;;;2.63;100.00
42859;BME280;28505;56.970;40.998;2023-03-25T01:06:00;98788.38;;;2.62;100.00
42859;BME280;28505;56.970;40.998;2023-03-25T01:11:29;98797.69;;;2.70;100.00
42859;BME280;28505;56.970;40.998;2023-03-25T01:16:52;98794.75;;;2.66;100.00
42859;BME280;28505;56.970;40.998;2023-03-25T01:22:15;98781.44;;;2.61;100.00
42859;BME280;28505;56.970;40.998;2023-03-25T01:27:37;98794.22;;;2.64;100.00
42859;BME280;28505;56.970;40.998;2023-03-25T01:32:59;98790.50;;;2.65;100.00
42859;BME280;28505;56.970;40.998;2023-03-25T01:38:21;98783.84;;;2.68;100.00
42859;BME280;28505;56.970;40.998;2023-03-25T01:44:06;98780.13;;;2.64;100.00
42859;BME280;28505;56.970;40.998;2023-03-25T01:49:41;98787.31;;;2.63;100.00
42859;BME280;28505;56.970;40.998;2023-03-25T01:55:04;98766.59;;;2.50;100.00
42859;BME280;28505;56.970;40.998;2023-03-25T02:00:27;98774.28;;;2.51;100.00
42859;BME280;28505;56.970;40.998;2023-03-25T02:11:26;98760.25;;;2.36;100.00
42859;BME280;28505;56.970;40.998;2023-03-25T02:17:24;98779.38;;;2.43;100.00
42859;BME280;28505;56.970;40.998;2023-03-25T02:28:53;98754.38;;;2.33;100.00
42859;BME280;28505;56.970;40.998;2023-03-25T02:39:59;98744.03;;;2.27;100.00
42859;BME280;28505;56.970;40.998;2023-03-25T02:45:36;98714.00;;;2.11;100.00
42859;BME280;28505;56.970;40.998;2023-03-25T02:51:06;98691.94;;;2.05;100.00
42859;BME280;28505;56.970;40.998;2023-03-25T02:56:32;98704.97;;;2.07;100.00
42859;BME280;28505;56.970;40.998;2023-03-25T03:02:11;98687.97;;;1.93;100.00
42859;BME280;28505;56.970;40.998;2023-03-25T03:07:37;98681.06;;;1.86;100.00
42859;BME280;28505;56.970;40.998;2023-03-25T03:13:28;98700.19;;;2.04;100.00
42859;BME280;28505;56.970;40.998;2023-03-25T03:24:58;98681.56;;;1.99;100.00
42859;BME280;28505;56.970;40.998;2023-03-25T03:30:54;98666.44;;;1.94;100.00
42859;BME280;28505;56.970;40.998;2023-03-25T03:36:17;98667.50;;;1.98;100.00
42859;BME280;28505;56.970;40.998;2023-03-25T03:41:42;98658.16;;;2.06;100.00
42859;BME280;28505;56.970;40.998;2023-03-25T03:47:15;98654.44;;;2.12;100.00
42859;BME280;28505;56.970;40.998;2023-03-25T03:52:48;98641.69;;;2.19;100.00
42859;BME280;28505;56.970;40.998;2023-03-25T03:58:18;98649.09;;;2.27;100.00
42859;BME280;28505;56.970;40.998;2023-03-25T04:03:49;98643.19;;;2.41;100.00
42859;BME280;28505;56.970;40.998;2023-03-25T04:14:49;98627.28;;;2.36;100.00
42859;BME280;28505;56.970;40.998;2023-03-25T04:20:21;98631.47;;;2.52;100.00
42859;BME280;28505;56.970;40.998;2023-03-25T04:25:44;98621.38;;;2.44;100.00
42859;BME280;28505;56.970;40.998;2023-03-25T04:31:16;98603.81;;;2.43;100.00
42859;BME280;28505;56.970;40.998;2023-03-25T04:36:38;98613.34;;;2.54;100.00
42859;BME280;28505;56.970;40.998;2023-03-25T04:42:03;98616.25;;;2.63;100.00
42859;BME280;28505;56.970;40.998;2023-03-25T04:47:26;98597.88;;;2.61;100.00
42859;BME280;28505;56.970;40.998;2023-03-25T04:52:49;98586.44;;;2.61;100.00
42859;BME280;28505;56.970;40.998;2023-03-25T04:58:15;98587.22;;;2.66;100.00
42859;BME280;28505;56.970;40.998;2023-03-25T05:03:37;98592.47;;;2.76;100.00
42859;BME280;28505;56.970;40.998;2023-03-25T05:09:01;98585.53;;;2.80;100.00
42859;BME280;28505;56.970;40.998;2023-03-25T05:14:38;98569.28;;;2.82;100.00
42859;BME280;28505;56.970;40.998;2023-03-25T05:20:00;98563.19;;;2.81;100.00
42859;BME280;28505;56.970;40.998;2023-03-25T05:25:22;98586.84;;;2.83;100.00
42859;BME280;28505;56.970;40.998;2023-03-25T05:30:45;98584.66;;;2.90;100.00
42859;BME280;28505;56.970;40.998;2023-03-25T05:36:12;98546.09;;;2.88;100.00
42859;BME280;28505;56.970;40.998;2023-03-25T05:41:35;98539.84;;;3.08;100.00
42859;BME280;28505;56.970;40.998;2023-03-25T05:46:59;98539.38;;;3.29;100.00
42859;BME280;28505;56.970;40.998;2023-03-25T05:52:21;98532.13;;;3.35;100.00
42859;BME280;28505;56.970;40.998;2023-03-25T05:57:48;98525.13;;;3.44;100.00
42859;BME280;28505;56.970;40.998;2023-03-25T06:03:10;98502.72;;;3.45;100.00
42859;BME280;28505;56.970;40.998;2023-03-25T06:08:35;98493.06;;;3.55;100.00
42859;BME280;28505;56.970;40.998;2023-03-25T06:13:57;98482.56;;;3.63;100.00
42859;BME280;28505;56.970;40.998;2023-03-25T06:19:21;98477.00;;;3.84;100.00
42859;BME280;28505;56.970;40.998;2023-03-25T06:24:47;98451.53;;;3.72;100.00
42859;BME280;28505;56.970;40.998;2023-03-25T06:30:12;98470.81;;;3.88;100.00
42859;BME280;28505;56.970;40.998;2023-03-25T06:35:34;98452.31;;;3.97;100.00
42859;BME280;28505;56.970;40.998;2023-03-25T06:40:56;98444.09;;;3.93;100.00
42859;BME280;28505;56.970;40.998;2023-03-25T06:46:19;98448.50;;;4.03;100.00
42859;BME280;28505;56.970;40.998;2023-03-25T06:52:01;98431.41;;;4.04;100.00
42859;BME280;28505;56.970;40.998;2023-03-25T06:57:23;98410.09;;;4.04;100.00
42859;BME280;28505;56.970;40.998;2023-03-25T07:02:45;98401.16;;;4.14;100.00
42859;BME280;28505;56.970;40.998;2023-03-25T07:08:07;98407.63;;;4.27;100.00
42859;BME280;28505;56.970;40.998;2023-03-25T07:13:30;98393.78;;;4.25;100.00
42859;BME280;28505;56.970;40.998;2023-03-25T07:18:52;98389.38;;;4.34;100.00
42859;BME280;28505;56.970;40.998;2023-03-25T07:24:15;98381.38;;;4.34;100.00
42859;BME280;28505;56.970;40.998;2023-03-25T07:29:38;98377.75;;;4.43;100.00
42859;BME280;28505;56.970;40.998;2023-03-25T07:35:00;98341.47;;;4.29;100.00
42859;BME280;28505;56.970;40.998;2023-03-25T07:40:22;98369.16;;;4.46;100.00
42859;BME280;28505;56.970;40.998;2023-03-25T07:45:55;98325.09;;;4.49;100.00
42859;BME280;28505;56.970;40.998;2023-03-25T07:51:21;98315.66;;;4.70;100.00
42859;BME280;28505;56.970;40.998;2023-03-25T07:56:43;98295.59;;;4.73;100.00
42859;BME280;28505;56.970;40.998;2023-03-25T08:02:06;98298.16;;;4.92;100.00
42859;BME280;28505;56.970;40.998;2023-03-25T08:07:31;98287.69;;;4.82;100.00
42859;BME280;28505;56.970;40.998;2023-03-25T08:12:53;98279.88;;;4.85;100.00
42859;BME280;28505;56.970;40.998;2023-03-25T08:18:15;98278.50;;;4.88;100.00
42859;BME280;28505;56.970;40.998;2023-03-25T08:23:37;98260.47;;;4.80;100.00
42859;BME280;28505;56.970;40.998;2023-03-25T08:29:01;98265.63;;;4.90;100.00
42859;BME280;28505;56.970;40.998;2023-03-25T08:34:26;98264.75;;;4.95;100.00
42859;BME280;28505;56.970;40.998;2023-03-25T08:40:17;98296.59;;;5.19;100.00
42859;BME280;28505;56.970;40.998;2023-03-25T08:45:58;98286.59;;;5.10;100.00
42859;BME280;28505;56.970;40.998;2023-03-25T08:58:06;98259.91;;;5.10;100.00
42859;BME280;28505;56.970;40.998;2023-03-25T09:03:30;98273.09;;;5.43;100.00
42859;BME280;28505;56.970;40.998;2023-03-25T09:08:52;98267.72;;;5.57;100.00
42859;BME280;28505;56.970;40.998;2023-03-25T09:14:18;98266.09;;;5.70;100.00
42859;BME280;28505;56.970;40.998;2023-03-25T09:19:40;98278.31;;;5.84;100.00
42859;BME280;28505;56.970;40.998;2023-03-25T09:25:04;98289.00;;;5.84;100.00
42859;BME280;28505;56.970;40.998;2023-03-25T09:30:27;98290.63;;;5.72;100.00
42859;BME280;28505;56.970;40.998;2023-03-25T09:35:51;98285.09;;;5.68;100.00
42859;BME280;28505;56.970;40.998;2023-03-25T09:41:45;98262.56;;;5.60;100.00
42859;BME280;28505;56.970;40.998;2023-03-25T09:47:13;98250.31;;;5.46;100.00
42859;BME280;28505;56.970;40.998;2023-03-25T09:52:53;98280.97;;;5.62;100.00
42859;BME280;28505;56.970;40.998;2023-03-25T09:58:43;98270.88;;;5.59;100.00
42859;BME280;28505;56.970;40.998;2023-03-25T10:32:44;98255.38;;;5.47;100.00
42859;BME280;28505;56.970;40.998;2023-03-25T10:43:43;98256.47;;;5.32;100.00
42859;BME280;28505;56.970;40.998;2023-03-25T10:49:17;98273.19;;;5.38;100.00
42859;BME280;28505;56.970;40.998;2023-03-25T10:54:44;98279.34;;;5.38;100.00
42859;BME280;28505;56.970;40.998;2023-03-25T11:00:17;98307.22;;;5.60;100.00
42859;BME280;28505;56.970;40.998;2023-03-25T11:05:41;98278.88;;;5.36;100.00
42859;BME280;28505;56.970;40.998;2023-03-25T11:11:05;98293.88;;;5.46;100.00
42859;BME280;28505;56.970;40.998;2023-03-25T11:16:33;98300.97;;;5.64;100.00
42859;BME280;28505;56.970;40.998;2023-03-25T11:22:06;98291.91;;;5.74;100.00
42859;BME280;28505;56.970;40.998;2023-03-25T11:27:44;98287.72;;;5.96;100.00
42859;BME280;28505;56.970;40.998;2023-03-25T11:33:25;98258.91;;;5.93;100.00
42859;BME280;28505;56.970;40.998;2023-03-25T11:38:54;98261.28;;;5.94;100.00
42859;BME280;28505;56.970;40.998;2023-03-25T11:44:29;98247.00;;;5.85;100.00
42859;BME280;28505;56.970;40.998;2023-03-25T11:49:53;98268.41;;;5.99;100.00
42859;BME280;28505;56.970;40.998;2023-03-25T11:55:20;98285.97;;;6.14;100.00
42859;BME280;28505;56.970;40.998;2023-03-25T12:00:49;98290.69;;;6.17;100.00
42859;BME280;28505;56.970;40.998;2023-03-25T12:06:18;98298.63;;;6.22;100.00
42859;BME280;28505;56.970;40.998;2023-03-25T12:17:55;98282.56;;;6.22;100.00
42859;BME280;28505;56.970;40.998;2023-03-25T12:29:40;98291.06;;;6.24;100.00
42859;BME280;28505;56.970;40.998;2023-03-25T12:40:47;98292.09;;;6.14;100.00
42859;BME280;28505;56.970;40.998;2023-03-25T12:57:46;98249.84;;;6.02;100.00
42859;BME280;28505;56.970;40.998;2023-03-25T13:03:31;98277.22;;;6.22;100.00
42859;BME280;28505;56.970;40.998;2023-03-25T13:09:20;98287.47;;;6.28;100.00
42859;BME280;28505;56.970;40.998;2023-03-25T13:20:40;98278.59;;;6.19;100.00
42859;BME280;28505;56.970;40.998;2023-03-25T13:26:10;98273.16;;;6.02;100.00
42859;BME280;28505;56.970;40.998;2023-03-25T13:31:39;98282.94;;;6.06;100.00
42859;BME280;28505;56.970;40.998;2023-03-25T13:37:13;98302.63;;;6.10;100.00
42859;BME280;28505;56.970;40.998;2023-03-25T13:42:58;98289.75;;;6.13;100.00
42859;BME280;28505;56.970;40.998;2023-03-25T13:49:39;98272.94;;;5.98;100.00
42859;BME280;28505;56.970;40.998;2023-03-25T13:54:34;98300.91;;;6.15;100.00
42859;BME280;28505;56.970;40.998;2023-03-25T14:06:18;98292.53;;;6.07;100.00
42859;BME280;28505;56.970;40.998;2023-03-25T14:12:01;98306.75;;;6.17;100.00
42859;BME280;28505;56.970;40.998;2023-03-25T14:17:29;98290.34;;;6.09;100.00
42859;BME280;28505;56.970;40.998;2023-03-25T14:22:56;98298.13;;;6.20;100.00
42859;BME280;28505;56.970;40.998;2023-03-25T14:28:40;98290.09;;;6.20;100.00
42859;BME280;28505;56.970;40.998;2023-03-25T14:44:52;98310.22;;;6.17;100.00
42859;BME280;28505;56.970;40.998;2023-03-25T14:55:45;98311.59;;;6.15;100.00
42859;BME280;28505;56.970;40.998;2023-03-25T15:01:11;98301.53;;;6.12;100.00
42859;BME280;28505;56.970;40.998;2023-03-25T15:06:36;98295.69;;;6.09;100.00
42859;BME280;28505;56.970;40.998;2023-03-25T15:12:01;98282.38;;;5.96;100.00
42859;BME280;28505;56.970;40.998;2023-03-25T15:40:13;98324.59;;;5.71;100.00
42859;BME280;28505;56.970;40.998;2023-03-25T16:08:27;98344.75;;;5.41;100.00
42859;BME280;28505;56.970;40.998;2023-03-25T16:14:11;98365.34;;;5.54;100.00
42859;BME280;28505;56.970;40.998;2023-03-25T16:19:44;98349.00;;;5.42;100.00
42859;BME280;28505;56.970;40.998;2023-03-25T16:25:18;98370.78;;;5.49;100.00
42859;BME280;28505;56.970;40.998;2023-03-25T16:30:43;98366.53;;;5.48;100.00
42859;BME280;28505;56.970;40.998;2023-03-25T16:36:13;98355.16;;;5.29;100.00
42859;BME280;28505;56.970;40.998;2023-03-25T16:41:36;98377.81;;;5.45;100.00
42859;BME280;28505;56.970;40.998;2023-03-25T16:46:59;98396.44;;;5.50;100.00
42859;BME280;28505;56.970;40.998;2023-03-25T16:52:29;98403.75;;;5.58;100.00
42859;BME280;28505;56.970;40.998;2023-03-25T16:57:54;98417.50;;;5.66;100.00
42859;BME280;28505;56.970;40.998;2023-03-25T17:03:43;98424.31;;;5.72;100.00
42859;BME280;28505;56.970;40.998;2023-03-25T17:09:06;98426.22;;;5.71;100.00
42859;BME280;28505;56.970;40.998;2023-03-25T17:14:35;98394.63;;;5.46;100.00
42859;BME280;28505;56.970;40.998;2023-03-25T17:20:10;98438.88;;;5.66;100.00
42859;BME280;28505;56.970;40.998;2023-03-25T17:25:55;98426.81;;;5.54;100.00
42859;BME280;28505;56.970;40.998;2023-03-25T17:37:00;98443.75;;;5.63;100.00
42859;BME280;28505;56.970;40.998;2023-03-25T17:42:33;98433.47;;;5.43;100.00
42859;BME280;28505;56.970;40.998;2023-03-25T17:48:16;98451.06;;;5.44;100.00
42859;BME280;28505;56.970;40.998;2023-03-25T17:53:38;98460.34;;;5.33;100.00
42859;BME280;28505;56.970;40.998;2023-03-25T17:59:05;98451.13;;;5.25;100.00
42859;BME280;28505;56.970;40.998;2023-03-25T18:04:28;98436.78;;;5.07;100.00
42859;BME280;28505;56.970;40.998;2023-03-25T18:10:01;98476.47;;;5.28;100.00
42859;BME280;28505;56.970;40.998;2023-03-25T18:15:23;98476.88;;;5.21;100.00
42859;BME280;28505;56.970;40.998;2023-03-25T18:20:46;98474.16;;;5.07;100.00
42859;BME280;28505;56.970;40.998;2023-03-25T18:26:13;98478.03;;;5.15;100.00
42859;BME280;28505;56.970;40.998;2023-03-25T18:31:37;98473.00;;;5.13;100.00
42859;BME280;28505;56.970;40.998;2023-03-25T18:36:59;98448.63;;;5.01;100.00
42859;BME280;28505;56.970;40.998;2023-03-25T18:42:22;98473.59;;;5.10;100.00
42859;BME280;28505;56.970;40.998;2023-03-25T18:47:46;98461.88;;;5.06;100.00
42859;BME280;28505;56.970;40.998;2023-03-25T18:53:09;98475.06;;;5.16;100.00
42859;BME280;28505;56.970;40.998;2023-03-25T18:58:33;98492.59;;;5.23;100.00
42859;BME280;28505;56.970;40.998;2023-03-25T19:04:04;98488.66;;;5.20;100.00
42859;BME280;28505;56.970;40.998;2023-03-25T19:10:40;98486.25;;;5.19;100.00
42859;BME280;28505;56.970;40.998;2023-03-25T19:16:03;98488.41;;;5.16;100.00
42859;BME280;28505;56.970;40.998;2023-03-25T19:21:36;98476.06;;;5.07;100.00
42859;BME280;28505;56.970;40.998;2023-03-25T19:27:03;98484.28;;;5.10;100.00
42859;BME280;28505;56.970;40.998;2023-03-25T19:32:31;98477.84;;;5.11;100.00
42859;BME280;28505;56.970;40.998;2023-03-25T19:37:57;98479.22;;;5.09;100.00
42859;BME280;28505;56.970;40.998;2023-03-25T19:43:29;98471.56;;;5.02;100.00
42859;BME280;28505;56.970;40.998;2023-03-25T19:48:56;98487.19;;;4.95;100.00
42859;BME280;28505;56.970;40.998;2023-03-25T19:54:19;98481.91;;;4.90;100.00
42859;BME280;28505;56.970;40.998;2023-03-25T19:59:47;98506.47;;;4.92;100.00
42859;BME280;28505;56.970;40.998;2023-03-25T20:05:19;98505.75;;;4.86;100.00
42859;BME280;28505;56.970;40.998;2023-03-25T20:10:45;98525.09;;;4.97;100.00
42859;BME280;28505;56.970;40.998;2023-03-25T20:16:14;98523.06;;;4.89;100.00
42859;BME280;28505;56.970;40.998;2023-03-25T20:21:41;98534.84;;;4.88;100.00
42859;BME280;28505;56.970;40.998;2023-03-25T20:27:04;98511.38;;;4.66;100.00
42859;BME280;28505;56.970;40.998;2023-03-25T20:32:26;98531.38;;;4.68;100.00
42859;BME280;28505;56.970;40.998;2023-03-25T20:38:04;98543.78;;;4.59;100.00
42859;BME280;28505;56.970;40.998;2023-03-25T20:43:31;98534.97;;;4.40;100.00
42859;BME280;28505;56.970;40.998;2023-03-25T20:48:55;98564.84;;;4.42;100.00
42859;BME280;28505;56.970;40.998;2023-03-25T20:54:18;98538.88;;;4.05;100.00
42859;BME280;28505;56.970;40.998;2023-03-25T20:59:40;98590.16;;;4.20;100.00
42859;BME280;28505;56.970;40.998;2023-03-25T21:05:02;98594.94;;;3.99;100.00
42859;BME280;28505;56.970;40.998;2023-03-25T21:10:25;98572.31;;;3.68;100.00
42859;BME280;28505;56.970;40.998;2023-03-25T21:15:54;98605.66;;;3.94;100.00
42859;BME280;28505;56.970;40.998;2023-03-25T21:21:18;98595.28;;;3.93;100.00
42859;BME280;28505;56.970;40.998;2023-03-25T21:26:47;98594.50;;;3.92;100.00
42859;BME280;28505;56.970;40.998;2023-03-25T21:32:10;98608.09;;;3.91;100.00
42859;BME280;28505;56.970;40.998;2023-03-25T21:37:35;98586.97;;;3.70;100.00
42859;BME280;28505;56.970;40.998;2023-03-25T21:43:01;98629.22;;;3.82;100.00
42859;BME280;28505;56.970;40.998;2023-03-25T21:48:24;98603.19;;;3.45;100.00
42859;BME280;28505;56.970;40.998;2023-03-25T21:53:47;98621.53;;;3.46;100.00
42859;BME280;28505;56.970;40.998;2023-03-25T21:59:10;98620.06;;;3.30;100.00
42859;BME280;28505;56.970;40.998;2023-03-25T22:04:33;98612.66;;;3.27;100.00
42859;BME280;28505;56.970;40.998;2023-03-25T22:10:05;98654.34;;;3.42;100.00
42859;BME280;28505;56.970;40.998;2023-03-25T22:15:29;98659.19;;;3.35;100.00
42859;BME280;28505;56.970;40.998;2023-03-25T22:20:52;98624.75;;;3.09;100.00
42859;BME280;28505;56.970;40.998;2023-03-25T22:26:16;98653.41;;;3.27;100.00
42859;BME280;28505;56.970;40.998;2023-03-25T22:31:38;98658.19;;;3.25;100.00
42859;BME280;28505;56.970;40.998;2023-03-25T22:37:01;98649.19;;;3.16;100.00
42859;BME280;28505;56.970;40.998;2023-03-25T22:42:23;98645.19;;;3.19;100.00
42859;BME280;28505;56.970;40.998;2023-03-25T22:47:46;98631.59;;;3.20;100.00
42859;BME280;28505;56.970;40.998;2023-03-25T22:53:08;98656.47;;;3.40;100.00
42859;BME280;28505;56.970;40.998;2023-03-25T22:58:30;98662.03;;;3.48;100.00
42859;BME280;28505;56.970;40.998;2023-03-25T23:03:54;98658.03;;;3.46;100.00
42859;BME280;28505;56.970;40.998;2023-03-25T23:09:17;98676.66;;;3.51;100.00
42859;BME280;28505;56.970;40.998;2023-03-25T23:14:59;98669.81;;;3.40;100.00
42859;BME280;28505;56.970;40.998;2023-03-25T23:20:22;98676.28;;;3.28;100.00
42859;BME280;28505;56.970;40.998;2023-03-25T23:25:44;98676.63;;;3.17;100.00
42859;BME280;28505;56.970;40.998;2023-03-25T23:31:12;98673.53;;;2.99;100.00
42859;BME280;28505;56.970;40.998;2023-03-25T23:36:36;98644.91;;;2.71;100.00
42859;BME280;28505;56.970;40.998;2023-03-25T23:41:58;98662.78;;;2.65;100.00
42859;BME280;28505;56.970;40.998;2023-03-25T23:47:21;98684.78;;;2.81;100.00
42859;BME280;28505;56.970;40.998;2023-03-25T23:52:43;98672.56;;;2.80;100.00
42859;BME280;28505;56.970;40.998;2023-03-25T23:58:06;98663.28;;;2.72;100.00
